sensor_id;sensor_type;location;lat;lon;timestamp;temperature;humidity
52267;DHT22;38223;50.940;4.034;2024-03-22T00:00:45;14.60;99.90
52267;DHT22;38223;50.940;4.034;2024-03-22T00:03:15;14.50;99.90
52267;DHT22;38223;50.940;4.034;2024-03-22T00:05:45;14.50;99.90
52267;DHT22;38223;50.940;4.034;2024-03-22T00:08:14;14.50;99.90
52267;DHT22;38223;50.940;4.034;2024-03-22T00:10:48;14.50;99.90
52267;DHT22;38223;50.940;4.034;2024-03-22T00:13:18;14.60;99.90
52267;DHT22;38223;50.940;4.034;2024-03-22T00:15:47;14.60;99.90
52267;DHT22;38223;50.940;4.034;2024-03-22T00:18:15;14.40;99.90
52267;DHT22;38223;50.940;4.034;2024-03-22T00:20:42;14.40;99.90
52267;DHT22;38223;50.940;4.034;2024-03-22T00:23:12;14.30;99.90
52267;DHT22;38223;50.940;4.034;2024-03-22T00:25:42;14.50;99.90
52267;DHT22;38223;50.940;4.034;2024-03-22T00:28:15;14.60;99.90
52267;DHT22;38223;50.940;4.034;2024-03-22T00:30:43;14.60;99.90
52267;DHT22;38223;50.940;4.034;2024-03-22T00:33:12;14.50;99.90
52267;DHT22;38223;50.940;4.034;2024-03-22T00:35:41;14.50;99.90
52267;DHT22;38223;50.940;4.034;2024-03-22T00:38:09;14.50;99.90
52267;DHT22;38223;50.940;4.034;2024-03-22T00:40:37;14.50;99.90
52267;DHT22;38223;50.940;4.034;2024-03-22T00:43:06;14.50;99.90
52267;DHT22;38223;50.940;4.034;2024-03-22T00:45:36;14.60;99.90
52267;DHT22;38223;50.940;4.034;2024-03-22T00:48:06;14.50;99.90
52267;DHT22;38223;50.940;4.034;2024-03-22T00:50:34;14.30;99.90
52267;DHT22;38223;50.940;4.034;2024-03-22T00:53:03;14.20;99.90
52267;DHT22;38223;50.940;4.034;2024-03-22T00:55:32;14.20;99.90
52267;DHT22;38223;50.940;4.034;2024-03-22T00:58:01;14.30;99.90
52267;DHT22;38223;50.940;4.034;2024-03-22T01:00:29;14.30;99.90
52267;DHT22;38223;50.940;4.034;2024-03-22T01:02:58;14.30;99.90
52267;DHT22;38223;50.940;4.034;2024-03-22T01:05:30;14.40;99.90
52267;DHT22;38223;50.940;4.034;2024-03-22T01:08:04;14.40;99.90
52267;DHT22;38223;50.940;4.034;2024-03-22T01:10:33;14.30;99.90
52267;DHT22;38223;50.940;4.034;2024-03-22T01:13:02;14.20;99.90
52267;DHT22;38223;50.940;4.034;2024-03-22T01:15:30;14.10;99.90
52267;DHT22;38223;50.940;4.034;2024-03-22T01:17:59;14.10;99.90
52267;DHT22;38223;50.940;4.034;2024-03-22T01:20:28;14.10;99.90
52267;DHT22;38223;50.940;4.034;2024-03-22T01:22:59;14.10;99.90
52267;DHT22;38223;50.940;4.034;2024-03-22T01:25:26;14.00;99.90
52267;DHT22;38223;50.940;4.034;2024-03-22T01:27:56;14.10;99.90
52267;DHT22;38223;50.940;4.034;2024-03-22T01:30:25;14.20;99.90
52267;DHT22;38223;50.940;4.034;2024-03-22T01:32:56;14.10;99.90
52267;DHT22;38223;50.940;4.034;2024-03-22T01:35:25;14.00;99.90
52267;DHT22;38223;50.940;4.034;2024-03-22T01:37:56;13.90;99.90
52267;DHT22;38223;50.940;4.034;2024-03-22T01:40:24;13.80;99.90
52267;DHT22;38223;50.940;4.034;2024-03-22T01:42:53;13.80;99.90
52267;DHT22;38223;50.940;4.034;2024-03-22T01:45:24;13.70;99.90
52267;DHT22;38223;50.940;4.034;2024-03-22T01:47:55;13.70;99.90
52267;DHT22;38223;50.940;4.034;2024-03-22T01:50:22;13.80;99.90
52267;DHT22;38223;50.940;4.034;2024-03-22T01:52:50;13.80;99.90
52267;DHT22;38223;50.940;4.034;2024-03-22T01:55:19;13.90;99.90
52267;DHT22;38223;50.940;4.034;2024-03-22T01:57:47;14.00;99.90
52267;DHT22;38223;50.940;4.034;2024-03-22T02:00:17;13.80;99.90
52267;DHT22;38223;50.940;4.034;2024-03-22T02:02:46;14.00;99.90
52267;DHT22;38223;50.940;4.034;2024-03-22T02:05:17;13.80;99.90
52267;DHT22;38223;50.940;4.034;2024-03-22T02:07:47;13.70;99.90
52267;DHT22;38223;50.940;4.034;2024-03-22T02:10:20;13.60;99.90
52267;DHT22;38223;50.940;4.034;2024-03-22T02:12:49;13.50;99.90
52267;DHT22;38223;50.940;4.034;2024-03-22T02:17:53;13.60;99.90
52267;DHT22;38223;50.940;4.034;2024-03-22T02:20:21;13.70;99.90
52267;DHT22;38223;50.940;4.034;2024-03-22T02:22:50;13.70;99.90
52267;DHT22;38223;50.940;4.034;2024-03-22T02:25:19;13.80;99.90
52267;DHT22;38223;50.940;4.034;2024-03-22T02:27:47;13.80;99.90
52267;DHT22;38223;50.940;4.034;2024-03-22T02:30:20;13.70;99.90
52267;DHT22;38223;50.940;4.034;2024-03-22T02:32:54;13.70;99.90
52267;DHT22;38223;50.940;4.034;2024-03-22T02:35:24;13.50;99.90
52267;DHT22;38223;50.940;4.034;2024-03-22T02:37:56;13.60;99.90
52267;DHT22;38223;50.940;4.034;2024-03-22T02:40:24;13.60;99.90
52267;DHT22;38223;50.940;4.034;2024-03-22T02:42:56;13.40;99.90
52267;DHT22;38223;50.940;4.034;2024-03-22T02:45:30;13.50;99.90
52267;DHT22;38223;50.940;4.034;2024-03-22T02:48:00;13.40;99.90
52267;DHT22;38223;50.940;4.034;2024-03-22T02:50:38;13.40;99.90
52267;DHT22;38223;50.940;4.034;2024-03-22T02:52:58;13.30;99.90
52267;DHT22;38223;50.940;4.034;2024-03-22T02:55:30;13.20;99.90
52267;DHT22;38223;50.940;4.034;2024-03-22T02:58:00;13.30;99.90
52267;DHT22;38223;50.940;4.034;2024-03-22T03:00:28;13.30;99.90
52267;DHT22;38223;50.940;4.034;2024-03-22T03:02:56;13.30;99.90
52267;DHT22;38223;50.940;4.034;2024-03-22T03:05:25;13.30;99.90
52267;DHT22;38223;50.940;4.034;2024-03-22T03:07:56;13.50;99.90
52267;DHT22;38223;50.940;4.034;2024-03-22T03:10:25;13.50;99.90
52267;DHT22;38223;50.940;4.034;2024-03-22T03:12:54;13.30;99.90
52267;DHT22;38223;50.940;4.034;2024-03-22T03:15:21;13.20;99.90
52267;DHT22;38223;50.940;4.034;2024-03-22T03:17:47;13.20;99.90
52267;DHT22;38223;50.940;4.034;2024-03-22T03:20:14;13.10;99.90
52267;DHT22;38223;50.940;4.034;2024-03-22T03:22:45;12.90;99.90
52267;DHT22;38223;50.940;4.034;2024-03-22T03:25:16;12.80;99.90
52267;DHT22;38223;50.940;4.034;2024-03-22T03:27:44;12.90;99.90
52267;DHT22;38223;50.940;4.034;2024-03-22T03:30:15;12.90;99.90
52267;DHT22;38223;50.940;4.034;2024-03-22T03:32:47;13.00;99.90
52267;DHT22;38223;50.940;4.034;2024-03-22T03:35:30;13.00;99.90
52267;DHT22;38223;50.940;4.034;2024-03-22T03:38:01;12.90;99.90
52267;DHT22;38223;50.940;4.034;2024-03-22T03:40:33;12.90;99.90
52267;DHT22;38223;50.940;4.034;2024-03-22T03:43:05;12.90;99.90
52267;DHT22;38223;50.940;4.034;2024-03-22T03:45:39;12.90;99.90
52267;DHT22;38223;50.940;4.034;2024-03-22T03:48:05;12.80;99.90
52267;DHT22;38223;50.940;4.034;2024-03-22T03:50:39;12.90;99.90
52267;DHT22;38223;50.940;4.034;2024-03-22T03:53:10;12.80;99.90
52267;DHT22;38223;50.940;4.034;2024-03-22T03:55:41;12.90;99.90
52267;DHT22;38223;50.940;4.034;2024-03-22T03:58:15;13.00;99.90
52267;DHT22;38223;50.940;4.034;2024-03-22T04:00:46;13.00;99.90
52267;DHT22;38223;50.940;4.034;2024-03-22T04:03:21;13.00;99.90
52267;DHT22;38223;50.940;4.034;2024-03-22T04:06:00;13.10;99.90
52267;DHT22;38223;50.940;4.034;2024-03-22T04:08:28;13.00;99.90
52267;DHT22;38223;50.940;4.034;2024-03-22T04:10:57;12.90;99.90
52267;DHT22;38223;50.940;4.034;2024-03-22T04:13:25;12.80;99.90
52267;DHT22;38223;50.940;4.034;2024-03-22T04:15:54;12.70;99.90
52267;DHT22;38223;50.940;4.034;2024-03-22T04:18:25;12.60;99.90
52267;DHT22;38223;50.940;4.034;2024-03-22T04:20:57;12.40;99.90
52267;DHT22;38223;50.940;4.034;2024-03-22T04:23:25;12.60;99.90
52267;DHT22;38223;50.940;4.034;2024-03-22T04:25:54;12.60;99.90
52267;DHT22;38223;50.940;4.034;2024-03-22T04:28:24;12.80;99.90
52267;DHT22;38223;50.940;4.034;2024-03-22T04:30:58;12.90;99.90
52267;DHT22;38223;50.940;4.034;2024-03-22T04:33:22;12.90;99.90
52267;DHT22;38223;50.940;4.034;2024-03-22T04:35:49;12.70;99.90
52267;DHT22;38223;50.940;4.034;2024-03-22T04:38:17;12.70;99.90
52267;DHT22;38223;50.940;4.034;2024-03-22T04:40:46;12.60;99.90
52267;DHT22;38223;50.940;4.034;2024-03-22T04:43:15;12.60;99.90
52267;DHT22;38223;50.940;4.034;2024-03-22T04:45:46;12.70;99.90
52267;DHT22;38223;50.940;4.034;2024-03-22T04:48:20;12.90;99.90
52267;DHT22;38223;50.940;4.034;2024-03-22T04:50:48;12.90;99.90
52267;DHT22;38223;50.940;4.034;2024-03-22T04:53:22;12.90;99.90
52267;DHT22;38223;50.940;4.034;2024-03-22T04:55:50;12.80;99.90
52267;DHT22;38223;50.940;4.034;2024-03-22T04:58:18;12.70;99.90
52267;DHT22;38223;50.940;4.034;2024-03-22T05:00:45;12.60;99.90
52267;DHT22;38223;50.940;4.034;2024-03-22T05:03:12;12.50;99.90
52267;DHT22;38223;50.940;4.034;2024-03-22T05:05:39;12.50;99.90
52267;DHT22;38223;50.940;4.034;2024-03-22T05:08:08;12.50;99.90
52267;DHT22;38223;50.940;4.034;2024-03-22T05:10:37;12.60;99.90
52267;DHT22;38223;50.940;4.034;2024-03-22T05:13:09;12.50;99.90
52267;DHT22;38223;50.940;4.034;2024-03-22T05:15:38;12.60;99.90
52267;DHT22;38223;50.940;4.034;2024-03-22T05:18:07;12.50;99.90
52267;DHT22;38223;50.940;4.034;2024-03-22T05:20:35;12.60;99.90
52267;DHT22;38223;50.940;4.034;2024-03-22T05:23:04;12.50;99.90
52267;DHT22;38223;50.940;4.034;2024-03-22T05:25:33;12.70;99.90
52267;DHT22;38223;50.940;4.034;2024-03-22T05:28:03;12.60;99.90
52267;DHT22;38223;50.940;4.034;2024-03-22T05:30:31;12.60;99.90
52267;DHT22;38223;50.940;4.034;2024-03-22T05:33:00;12.50;99.90
52267;DHT22;38223;50.940;4.034;2024-03-22T05:35:30;12.40;99.90
52267;DHT22;38223;50.940;4.034;2024-03-22T05:37:58;12.40;99.90
52267;DHT22;38223;50.940;4.034;2024-03-22T05:40:26;12.30;99.90
52267;DHT22;38223;50.940;4.034;2024-03-22T05:42:54;12.30;99.90
52267;DHT22;38223;50.940;4.034;2024-03-22T05:45:23;12.30;99.90
52267;DHT22;38223;50.940;4.034;2024-03-22T05:47:52;12.30;99.90
52267;DHT22;38223;50.940;4.034;2024-03-22T05:50:20;12.30;99.90
52267;DHT22;38223;50.940;4.034;2024-03-22T05:52:49;12.40;99.90
52267;DHT22;38223;50.940;4.034;2024-03-22T05:55:17;12.40;99.90
52267;DHT22;38223;50.940;4.034;2024-03-22T05:57:46;12.40;99.90
52267;DHT22;38223;50.940;4.034;2024-03-22T06:00:13;12.30;99.90
52267;DHT22;38223;50.940;4.034;2024-03-22T06:02:43;12.40;99.90
52267;DHT22;38223;50.940;4.034;2024-03-22T06:05:12;12.40;99.90
52267;DHT22;38223;50.940;4.034;2024-03-22T06:07:40;12.40;99.90
52267;DHT22;38223;50.940;4.034;2024-03-22T06:10:09;12.40;99.90
52267;DHT22;38223;50.940;4.034;2024-03-22T06:12:39;12.40;99.90
52267;DHT22;38223;50.940;4.034;2024-03-22T06:15:12;12.30;99.90
52267;DHT22;38223;50.940;4.034;2024-03-22T06:17:40;12.30;99.90
52267;DHT22;38223;50.940;4.034;2024-03-22T06:20:08;12.30;99.90
52267;DHT22;38223;50.940;4.034;2024-03-22T06:22:37;12.30;99.90
52267;DHT22;38223;50.940;4.034;2024-03-22T06:25:05;12.30;99.90
52267;DHT22;38223;50.940;4.034;2024-03-22T06:27:34;12.20;99.90
52267;DHT22;38223;50.940;4.034;2024-03-22T06:30:03;12.20;99.90
52267;DHT22;38223;50.940;4.034;2024-03-22T06:32:31;12.20;99.90
52267;DHT22;38223;50.940;4.034;2024-03-22T06:35:00;12.20;99.90
52267;DHT22;38223;50.940;4.034;2024-03-22T06:37:31;12.00;99.90
52267;DHT22;38223;50.940;4.034;2024-03-22T06:40:00;12.00;99.90
52267;DHT22;38223;50.940;4.034;2024-03-22T06:42:28;12.10;99.90
52267;DHT22;38223;50.940;4.034;2024-03-22T06:44:58;12.10;99.90
52267;DHT22;38223;50.940;4.034;2024-03-22T06:47:29;12.10;99.90
52267;DHT22;38223;50.940;4.034;2024-03-22T06:49:59;12.10;99.90
52267;DHT22;38223;50.940;4.034;2024-03-22T06:52:29;12.10;99.90
52267;DHT22;38223;50.940;4.034;2024-03-22T06:54:58;12.00;99.90
52267;DHT22;38223;50.940;4.034;2024-03-22T06:57:26;11.90;99.90
52267;DHT22;38223;50.940;4.034;2024-03-22T06:59:55;11.90;99.90
52267;DHT22;38223;50.940;4.034;2024-03-22T07:02:26;11.90;99.90
52267;DHT22;38223;50.940;4.034;2024-03-22T07:04:54;12.10;99.90
52267;DHT22;38223;50.940;4.034;2024-03-22T07:07:23;12.20;99.90
52267;DHT22;38223;50.940;4.034;2024-03-22T07:09:50;12.20;99.90
52267;DHT22;38223;50.940;4.034;2024-03-22T07:12:20;12.20;99.90
52267;DHT22;38223;50.940;4.034;2024-03-22T07:14:49;12.10;99.90
52267;DHT22;38223;50.940;4.034;2024-03-22T07:17:16;12.20;99.90
52267;DHT22;38223;50.940;4.034;2024-03-22T07:19:43;12.20;99.90
52267;DHT22;38223;50.940;4.034;2024-03-22T07:22:10;12.30;99.90
52267;DHT22;38223;50.940;4.034;2024-03-22T07:24:37;12.30;99.90
52267;DHT22;38223;50.940;4.034;2024-03-22T07:27:05;12.30;99.90
52267;DHT22;38223;50.940;4.034;2024-03-22T07:29:32;12.40;99.90
52267;DHT22;38223;50.940;4.034;2024-03-22T07:32:00;12.50;99.90
52267;DHT22;38223;50.940;4.034;2024-03-22T07:34:29;12.50;99.90
52267;DHT22;38223;50.940;4.034;2024-03-22T07:36:58;12.50;99.90
52267;DHT22;38223;50.940;4.034;2024-03-22T07:39:30;12.60;99.90
52267;DHT22;38223;50.940;4.034;2024-03-22T07:41:57;12.40;99.90
52267;DHT22;38223;50.940;4.034;2024-03-22T07:44:26;12.50;99.90
52267;DHT22;38223;50.940;4.034;2024-03-22T07:46:56;12.60;99.90
52267;DHT22;38223;50.940;4.034;2024-03-22T07:49:24;12.70;99.90
52267;DHT22;38223;50.940;4.034;2024-03-22T07:51:54;12.70;99.90
52267;DHT22;38223;50.940;4.034;2024-03-22T07:54:26;12.90;99.90
52267;DHT22;38223;50.940;4.034;2024-03-22T07:56:56;13.00;99.90
52267;DHT22;38223;50.940;4.034;2024-03-22T07:59:24;12.80;99.90
52267;DHT22;38223;50.940;4.034;2024-03-22T08:01:55;12.50;99.90
52267;DHT22;38223;50.940;4.034;2024-03-22T08:04:24;12.50;99.90
52267;DHT22;38223;50.940;4.034;2024-03-22T08:06:57;12.50;99.90
52267;DHT22;38223;50.940;4.034;2024-03-22T08:09:30;12.80;99.90
52267;DHT22;38223;50.940;4.034;2024-03-22T08:12:00;12.80;99.90
52267;DHT22;38223;50.940;4.034;2024-03-22T08:14:30;12.80;99.90
52267;DHT22;38223;50.940;4.034;2024-03-22T08:17:00;12.90;99.90
52267;DHT22;38223;50.940;4.034;2024-03-22T08:19:29;12.80;99.90
52267;DHT22;38223;50.940;4.034;2024-03-22T08:21:58;13.00;99.90
52267;DHT22;38223;50.940;4.034;2024-03-22T08:24:29;13.10;99.90
52267;DHT22;38223;50.940;4.034;2024-03-22T08:26:58;13.00;99.90
52267;DHT22;38223;50.940;4.034;2024-03-22T08:29:27;13.00;99.90
52267;DHT22;38223;50.940;4.034;2024-03-22T08:31:58;13.00;99.90
52267;DHT22;38223;50.940;4.034;2024-03-22T08:34:26;13.20;99.90
52267;DHT22;38223;50.940;4.034;2024-03-22T08:36:56;13.10;99.90
52267;DHT22;38223;50.940;4.034;2024-03-22T08:39:25;13.20;99.90
52267;DHT22;38223;50.940;4.034;2024-03-22T08:41:53;13.30;99.90
52267;DHT22;38223;50.940;4.034;2024-03-22T08:44:24;13.40;99.90
52267;DHT22;38223;50.940;4.034;2024-03-22T08:46:52;13.40;99.90
52267;DHT22;38223;50.940;4.034;2024-03-22T08:49:21;13.30;99.90
52267;DHT22;38223;50.940;4.034;2024-03-22T08:51:49;13.40;99.90
52267;DHT22;38223;50.940;4.034;2024-03-22T08:54:17;13.40;99.90
52267;DHT22;38223;50.940;4.034;2024-03-22T08:56:47;13.50;99.90
52267;DHT22;38223;50.940;4.034;2024-03-22T08:59:17;13.40;99.90
52267;DHT22;38223;50.940;4.034;2024-03-22T09:01:48;13.30;99.90
52267;DHT22;38223;50.940;4.034;2024-03-22T09:04:27;13.40;99.90
52267;DHT22;38223;50.940;4.034;2024-03-22T09:06:55;13.50;99.90
52267;DHT22;38223;50.940;4.034;2024-03-22T09:09:23;13.60;99.90
52267;DHT22;38223;50.940;4.034;2024-03-22T09:11:52;13.60;99.90
52267;DHT22;38223;50.940;4.034;2024-03-22T09:14:20;13.80;99.90
52267;DHT22;38223;50.940;4.034;2024-03-22T09:16:53;13.70;99.90
52267;DHT22;38223;50.940;4.034;2024-03-22T09:19:26;13.60;99.90
52267;DHT22;38223;50.940;4.034;2024-03-22T09:21:56;13.60;99.90
52267;DHT22;38223;50.940;4.034;2024-03-22T09:24:29;13.50;99.90
52267;DHT22;38223;50.940;4.034;2024-03-22T09:26:57;13.50;99.90
52267;DHT22;38223;50.940;4.034;2024-03-22T09:29:26;13.60;99.90
52267;DHT22;38223;50.940;4.034;2024-03-22T09:31:59;13.70;99.90
52267;DHT22;38223;50.940;4.034;2024-03-22T09:34:31;13.80;99.90
52267;DHT22;38223;50.940;4.034;2024-03-22T09:37:02;13.60;99.90
52267;DHT22;38223;50.940;4.034;2024-03-22T09:39:33;13.50;99.90
52267;DHT22;38223;50.940;4.034;2024-03-22T09:42:02;13.60;99.90
52267;DHT22;38223;50.940;4.034;2024-03-22T09:44:30;13.60;99.90
52267;DHT22;38223;50.940;4.034;2024-03-22T09:47:00;13.70;99.90
52267;DHT22;38223;50.940;4.034;2024-03-22T09:49:30;13.70;99.90
52267;DHT22;38223;50.940;4.034;2024-03-22T09:51:59;13.80;99.90
52267;DHT22;38223;50.940;4.034;2024-03-22T09:54:29;13.80;99.90
52267;DHT22;38223;50.940;4.034;2024-03-22T09:57:01;13.70;99.90
52267;DHT22;38223;50.940;4.034;2024-03-22T09:59:32;13.90;99.90
52267;DHT22;38223;50.940;4.034;2024-03-22T10:02:03;14.00;99.90
52267;DHT22;38223;50.940;4.034;2024-03-22T10:04:33;14.20;99.90
52267;DHT22;38223;50.940;4.034;2024-03-22T10:07:04;14.10;99.90
52267;DHT22;38223;50.940;4.034;2024-03-22T10:09:35;14.10;99.90
52267;DHT22;38223;50.940;4.034;2024-03-22T10:12:03;14.30;99.90
52267;DHT22;38223;50.940;4.034;2024-03-22T10:14:33;14.30;99.90
52267;DHT22;38223;50.940;4.034;2024-03-22T10:17:03;14.00;99.90
52267;DHT22;38223;50.940;4.034;2024-03-22T10:19:35;13.90;99.90
52267;DHT22;38223;50.940;4.034;2024-03-22T10:22:03;13.90;99.90
52267;DHT22;38223;50.940;4.034;2024-03-22T10:24:33;14.10;99.90
52267;DHT22;38223;50.940;4.034;2024-03-22T10:27:02;14.10;99.90
52267;DHT22;38223;50.940;4.034;2024-03-22T10:29:30;14.10;99.90
52267;DHT22;38223;50.940;4.034;2024-03-22T10:31:59;13.70;99.90
52267;DHT22;38223;50.940;4.034;2024-03-22T10:34:28;13.60;99.90
52267;DHT22;38223;50.940;4.034;2024-03-22T10:36:55;13.50;99.90
52267;DHT22;38223;50.940;4.034;2024-03-22T10:39:23;13.40;99.90
52267;DHT22;38223;50.940;4.034;2024-03-22T10:41:52;13.40;99.90
52267;DHT22;38223;50.940;4.034;2024-03-22T10:44:19;13.40;99.90
52267;DHT22;38223;50.940;4.034;2024-03-22T10:46:47;13.40;99.90
52267;DHT22;38223;50.940;4.034;2024-03-22T10:49:18;13.60;99.90
52267;DHT22;38223;50.940;4.034;2024-03-22T10:51:49;13.80;99.90
52267;DHT22;38223;50.940;4.034;2024-03-22T10:54:21;13.90;99.90
52267;DHT22;38223;50.940;4.034;2024-03-22T10:56:51;13.60;99.90
52267;DHT22;38223;50.940;4.034;2024-03-22T10:59:21;13.50;99.90
52267;DHT22;38223;50.940;4.034;2024-03-22T11:01:51;13.50;99.90
52267;DHT22;38223;50.940;4.034;2024-03-22T11:04:22;13.50;99.90
52267;DHT22;38223;50.940;4.034;2024-03-22T11:06:51;13.40;99.90
52267;DHT22;38223;50.940;4.034;2024-03-22T11:09:26;13.50;99.90
52267;DHT22;38223;50.940;4.034;2024-03-22T11:11:53;13.40;99.90
52267;DHT22;38223;50.940;4.034;2024-03-22T11:14:20;13.20;99.90
52267;DHT22;38223;50.940;4.034;2024-03-22T11:16:50;13.10;99.90
52267;DHT22;38223;50.940;4.034;2024-03-22T11:19:20;13.10;99.90
52267;DHT22;38223;50.940;4.034;2024-03-22T11:21:49;13.10;99.90
52267;DHT22;38223;50.940;4.034;2024-03-22T11:24:17;13.10;99.90
52267;DHT22;38223;50.940;4.034;2024-03-22T11:26:47;13.20;99.90
52267;DHT22;38223;50.940;4.034;2024-03-22T11:29:16;13.40;99.90
52267;DHT22;38223;50.940;4.034;2024-03-22T11:31:44;13.40;99.90
52267;DHT22;38223;50.940;4.034;2024-03-22T11:34:13;13.30;99.90
52267;DHT22;38223;50.940;4.034;2024-03-22T11:36:41;13.20;99.90
52267;DHT22;38223;50.940;4.034;2024-03-22T11:39:07;13.10;99.90
52267;DHT22;38223;50.940;4.034;2024-03-22T11:41:36;13.10;99.90
52267;DHT22;38223;50.940;4.034;2024-03-22T11:44:08;13.20;99.90
52267;DHT22;38223;50.940;4.034;2024-03-22T11:46:39;13.30;99.90
52267;DHT22;38223;50.940;4.034;2024-03-22T11:49:10;13.40;99.90
52267;DHT22;38223;50.940;4.034;2024-03-22T11:51:41;13.60;99.90
52267;DHT22;38223;50.940;4.034;2024-03-22T11:54:10;13.40;99.90
52267;DHT22;38223;50.940;4.034;2024-03-22T11:56:39;13.40;99.90
52267;DHT22;38223;50.940;4.034;2024-03-22T11:59:09;13.60;99.90
52267;DHT22;38223;50.940;4.034;2024-03-22T12:01:35;13.60;99.90
52267;DHT22;38223;50.940;4.034;2024-03-22T12:04:02;13.40;99.90
52267;DHT22;38223;50.940;4.034;2024-03-22T12:06:30;13.20;99.90
52267;DHT22;38223;50.940;4.034;2024-03-22T12:08:58;13.10;99.90
52267;DHT22;38223;50.940;4.034;2024-03-22T12:11:27;13.00;99.90
52267;DHT22;38223;50.940;4.034;2024-03-22T12:13:58;13.10;99.90
52267;DHT22;38223;50.940;4.034;2024-03-22T12:16:28;13.20;99.90
52267;DHT22;38223;50.940;4.034;2024-03-22T12:18:56;13.30;99.90
52267;DHT22;38223;50.940;4.034;2024-03-22T12:21:26;13.20;99.90
52267;DHT22;38223;50.940;4.034;2024-03-22T12:23:59;13.20;99.90
52267;DHT22;38223;50.940;4.034;2024-03-22T12:26:28;13.20;99.90
52267;DHT22;38223;50.940;4.034;2024-03-22T12:28:59;13.20;99.90
52267;DHT22;38223;50.940;4.034;2024-03-22T12:31:31;13.40;99.90
52267;DHT22;38223;50.940;4.034;2024-03-22T12:34:02;13.40;99.90
52267;DHT22;38223;50.940;4.034;2024-03-22T12:36:31;13.40;99.90
52267;DHT22;38223;50.940;4.034;2024-03-22T12:38:59;13.30;99.90
52267;DHT22;38223;50.940;4.034;2024-03-22T12:41:28;13.30;99.90
52267;DHT22;38223;50.940;4.034;2024-03-22T12:43:56;13.20;99.90
52267;DHT22;38223;50.940;4.034;2024-03-22T12:46:24;13.20;99.90
52267;DHT22;38223;50.940;4.034;2024-03-22T12:48:53;13.10;99.90
52267;DHT22;38223;50.940;4.034;2024-03-22T12:51:22;12.90;99.90
52267;DHT22;38223;50.940;4.034;2024-03-22T12:53:51;12.90;99.90
52267;DHT22;38223;50.940;4.034;2024-03-22T12:56:20;12.90;99.90
52267;DHT22;38223;50.940;4.034;2024-03-22T12:58:49;13.00;99.90
52267;DHT22;38223;50.940;4.034;2024-03-22T13:01:20;12.80;99.90
52267;DHT22;38223;50.940;4.034;2024-03-22T13:03:55;12.90;99.90
52267;DHT22;38223;50.940;4.034;2024-03-22T13:06:24;13.00;99.90
52267;DHT22;38223;50.940;4.034;2024-03-22T13:08:52;12.90;99.90
52267;DHT22;38223;50.940;4.034;2024-03-22T13:11:21;12.70;99.90
52267;DHT22;38223;50.940;4.034;2024-03-22T13:13:50;12.60;99.90
52267;DHT22;38223;50.940;4.034;2024-03-22T13:16:18;12.60;99.90
52267;DHT22;38223;50.940;4.034;2024-03-22T13:18:48;12.70;99.90
52267;DHT22;38223;50.940;4.034;2024-03-22T13:21:18;12.50;99.90
52267;DHT22;38223;50.940;4.034;2024-03-22T13:23:47;12.50;99.90
52267;DHT22;38223;50.940;4.034;2024-03-22T13:26:16;12.40;99.90
52267;DHT22;38223;50.940;4.034;2024-03-22T13:28:49;12.40;99.90
52267;DHT22;38223;50.940;4.034;2024-03-22T13:31:19;12.40;99.90
52267;DHT22;38223;50.940;4.034;2024-03-22T13:33:47;12.50;99.90
52267;DHT22;38223;50.940;4.034;2024-03-22T13:36:15;12.50;99.90
52267;DHT22;38223;50.940;4.034;2024-03-22T13:38:44;12.50;99.90
52267;DHT22;38223;50.940;4.034;2024-03-22T13:41:12;12.60;99.90
52267;DHT22;38223;50.940;4.034;2024-03-22T13:43:41;12.80;99.90
52267;DHT22;38223;50.940;4.034;2024-03-22T13:46:10;12.80;99.90
52267;DHT22;38223;50.940;4.034;2024-03-22T13:48:39;12.70;99.90
52267;DHT22;38223;50.940;4.034;2024-03-22T13:51:07;12.60;99.90
52267;DHT22;38223;50.940;4.034;2024-03-22T13:53:36;12.50;99.90
52267;DHT22;38223;50.940;4.034;2024-03-22T13:56:06;12.60;99.90
52267;DHT22;38223;50.940;4.034;2024-03-22T13:58:34;12.30;99.90
52267;DHT22;38223;50.940;4.034;2024-03-22T14:01:05;12.10;99.90
52267;DHT22;38223;50.940;4.034;2024-03-22T14:03:34;12.20;99.90
52267;DHT22;38223;50.940;4.034;2024-03-22T14:06:03;12.10;99.90
52267;DHT22;38223;50.940;4.034;2024-03-22T14:08:31;12.20;99.90
52267;DHT22;38223;50.940;4.034;2024-03-22T14:11:01;12.10;99.90
52267;DHT22;38223;50.940;4.034;2024-03-22T14:13:57;12.30;99.90
52267;DHT22;38223;50.940;4.034;2024-03-22T14:16:24;12.40;99.90
52267;DHT22;38223;50.940;4.034;2024-03-22T14:18:51;12.40;99.90
52267;DHT22;38223;50.940;4.034;2024-03-22T14:21:19;12.50;99.90
52267;DHT22;38223;50.940;4.034;2024-03-22T14:23:51;12.50;99.90
52267;DHT22;38223;50.940;4.034;2024-03-22T14:26:20;12.40;99.90
52267;DHT22;38223;50.940;4.034;2024-03-22T14:28:51;12.40;99.90
52267;DHT22;38223;50.940;4.034;2024-03-22T14:31:18;12.50;99.90
52267;DHT22;38223;50.940;4.034;2024-03-22T14:33:49;12.50;99.90
52267;DHT22;38223;50.940;4.034;2024-03-22T14:36:17;12.60;99.90
52267;DHT22;38223;50.940;4.034;2024-03-22T14:38:46;12.70;99.90
52267;DHT22;38223;50.940;4.034;2024-03-22T14:41:13;12.60;99.90
52267;DHT22;38223;50.940;4.034;2024-03-22T14:43:40;12.70;99.90
52267;DHT22;38223;50.940;4.034;2024-03-22T14:46:07;12.80;99.90
52267;DHT22;38223;50.940;4.034;2024-03-22T14:48:35;12.90;99.90
52267;DHT22;38223;50.940;4.034;2024-03-22T14:51:02;12.80;99.90
52267;DHT22;38223;50.940;4.034;2024-03-22T14:53:29;12.90;99.90
52267;DHT22;38223;50.940;4.034;2024-03-22T14:55:57;13.00;99.90
52267;DHT22;38223;50.940;4.034;2024-03-22T14:58:27;12.90;99.90
52267;DHT22;38223;50.940;4.034;2024-03-22T15:00:56;12.80;99.90
52267;DHT22;38223;50.940;4.034;2024-03-22T15:03:25;12.60;99.90
52267;DHT22;38223;50.940;4.034;2024-03-22T15:05:55;12.50;99.90
52267;DHT22;38223;50.940;4.034;2024-03-22T15:08:25;12.60;99.90
52267;DHT22;38223;50.940;4.034;2024-03-22T15:10:56;12.40;99.90
52267;DHT22;38223;50.940;4.034;2024-03-22T15:13:25;12.30;99.90
52267;DHT22;38223;50.940;4.034;2024-03-22T15:15:54;12.40;99.90
52267;DHT22;38223;50.940;4.034;2024-03-22T15:18:22;12.40;99.90
52267;DHT22;38223;50.940;4.034;2024-03-22T15:20:54;12.40;99.90
52267;DHT22;38223;50.940;4.034;2024-03-22T15:23:22;12.50;99.90
52267;DHT22;38223;50.940;4.034;2024-03-22T15:25:49;12.50;99.90
52267;DHT22;38223;50.940;4.034;2024-03-22T15:28:19;12.50;99.90
52267;DHT22;38223;50.940;4.034;2024-03-22T15:30:50;12.60;99.90
52267;DHT22;38223;50.940;4.034;2024-03-22T15:33:19;12.50;99.90
52267;DHT22;38223;50.940;4.034;2024-03-22T15:35:47;12.40;99.90
52267;DHT22;38223;50.940;4.034;2024-03-22T15:38:16;12.30;99.90
52267;DHT22;38223;50.940;4.034;2024-03-22T15:40:46;12.20;99.90
52267;DHT22;38223;50.940;4.034;2024-03-22T15:43:15;12.10;99.90
52267;DHT22;38223;50.940;4.034;2024-03-22T15:45:44;12.10;99.90